createdAt,value
2022-12-13T00:00:19.570Z,5.50
2022-12-13T00:03:10.143Z,5.80
2022-12-13T00:05:44.942Z,4.20
2022-12-13T00:08:14.428Z,4.90
2022-12-13T00:10:43.356Z,5.10
2022-12-13T00:13:14.491Z,4.80
2022-12-13T00:15:46.136Z,4.30
2022-12-13T00:18:15.547Z,3.50
2022-12-13T00:20:45.047Z,6.00
2022-12-13T00:23:14.152Z,3.80
2022-12-13T00:25:44.964Z,4.80
2022-12-13T00:28:16.388Z,4.30
2022-12-13T00:30:45.481Z,4.50
2022-12-13T00:33:14.599Z,4.10
2022-12-13T00:35:46.295Z,3.70
2022-12-13T00:38:15.520Z,4.30
2022-12-13T00:40:44.520Z,4.10
2022-12-13T00:43:14.534Z,4.00
2022-12-13T00:45:44.789Z,3.50
2022-12-13T00:48:16.704Z,5.10
2022-12-13T00:50:46.221Z,4.60
2022-12-13T00:53:16.705Z,3.40
2022-12-13T00:55:47.103Z,4.00
2022-12-13T00:58:18.012Z,3.80
2022-12-13T01:00:49.390Z,4.00
2022-12-13T01:03:25.749Z,4.10
2022-12-13T01:08:48.009Z,3.50
2022-12-13T01:11:18.532Z,4.90
2022-12-13T01:13:48.921Z,3.30
2022-12-13T01:16:20.314Z,5.10
2022-12-13T01:18:50.682Z,4.00
2022-12-13T01:21:23.381Z,4.80
2022-12-13T01:23:53.339Z,3.30
2022-12-13T01:26:23.762Z,3.40
2022-12-13T01:28:53.698Z,4.30
2022-12-13T01:31:28.789Z,4.30
2022-12-13T01:33:59.317Z,3.20
2022-12-13T01:36:28.593Z,2.80
2022-12-13T01:38:58.064Z,3.40
2022-12-13T01:41:29.193Z,4.00
2022-12-13T01:44:03.903Z,4.10
2022-12-13T01:46:58.064Z,3.90
2022-12-13T01:49:27.525Z,3.20
2022-12-13T01:52:02.765Z,2.90
2022-12-13T01:54:37.494Z,3.10
2022-12-13T01:57:10.474Z,3.00
2022-12-13T01:59:42.638Z,3.30
2022-12-13T02:02:14.430Z,3.00
2022-12-13T02:05:15.729Z,4.90
2022-12-13T02:07:47.926Z,6.00
2022-12-13T02:10:17.534Z,5.60
2022-12-13T02:12:48.353Z,7.50
2022-12-13T02:15:20.588Z,2.90
2022-12-13T02:18:08.299Z,5.40
2022-12-13T02:20:53.350Z,4.40
2022-12-13T02:23:58.362Z,4.00
2022-12-13T02:26:49.498Z,3.40
2022-12-13T02:29:39.353Z,3.70
2022-12-13T02:32:30.235Z,3.90
2022-12-13T02:35:34.034Z,4.00
2022-12-13T02:38:22.997Z,3.60
2022-12-13T02:41:23.526Z,3.50
2022-12-13T02:44:21.773Z,2.70
2022-12-13T02:47:12.772Z,2.90
2022-12-13T02:49:58.525Z,2.90
2022-12-13T02:52:31.998Z,2.50
2022-12-13T02:55:06.529Z,4.20
2022-12-13T02:57:38.861Z,3.30
2022-12-13T03:00:12.842Z,4.10
2022-12-13T03:03:07.410Z,2.80
2022-12-13T03:06:33.325Z,2.40
2022-12-13T03:09:30.088Z,3.10
2022-12-13T03:15:25.038Z,2.70
2022-12-13T03:18:18.044Z,2.30
2022-12-13T03:21:05.817Z,2.30
2022-12-13T03:23:36.285Z,2.60
2022-12-13T03:26:10.866Z,2.40
2022-12-13T03:28:40.876Z,2.70
2022-12-13T03:31:09.942Z,3.00
2022-12-13T03:33:39.186Z,3.10
2022-12-13T03:36:09.657Z,3.20
2022-12-13T03:38:41.089Z,3.10
2022-12-13T03:41:14.585Z,2.60
2022-12-13T03:43:45.817Z,3.70
2022-12-13T03:46:39.299Z,4.50
2022-12-13T03:49:11.306Z,3.10
2022-12-13T03:51:42.731Z,2.90
2022-12-13T03:54:11.798Z,3.60
2022-12-13T03:56:40.685Z,3.50
2022-12-13T03:59:09.607Z,2.90
2022-12-13T04:01:38.816Z,3.70
2022-12-13T04:04:07.804Z,3.70
2022-12-13T04:06:39.582Z,5.30
2022-12-13T04:09:10.093Z,3.40
2022-12-13T04:11:57.753Z,7.00
2022-12-13T04:14:27.513Z,4.50
2022-12-13T04:16:56.446Z,3.90
2022-12-13T04:19:28.854Z,3.80
2022-12-13T04:21:57.918Z,3.30
2022-12-13T04:24:32.023Z,3.60
2022-12-13T04:27:04.045Z,2.90
2022-12-13T04:29:34.669Z,3.60
2022-12-13T04:32:26.979Z,3.00
2022-12-13T04:35:00.926Z,4.00
2022-12-13T04:37:31.721Z,2.40
2022-12-13T04:40:01.484Z,3.70
2022-12-13T04:42:30.627Z,4.40
2022-12-13T04:44:59.566Z,3.40
2022-12-13T04:47:30.316Z,3.20
2022-12-13T04:50:00.512Z,4.20
2022-12-13T04:52:31.086Z,4.70
2022-12-13T04:55:00.100Z,4.60
2022-12-13T04:57:30.324Z,4.70
2022-12-13T04:59:59.722Z,7.20
2022-12-13T05:02:28.862Z,5.90
2022-12-13T05:04:58.303Z,5.00
2022-12-13T05:07:28.158Z,5.50
2022-12-13T05:09:57.058Z,4.40
2022-12-13T05:12:27.569Z,4.60
2022-12-13T05:14:58.540Z,3.90
2022-12-13T05:17:30.217Z,7.80
2022-12-13T05:19:59.384Z,6.40
2022-12-13T05:22:28.734Z,6.90
2022-12-13T05:24:57.620Z,6.30
2022-12-13T05:27:27.142Z,5.20
2022-12-13T05:30:05.478Z,10.20
2022-12-13T05:32:43.370Z,7.70
2022-12-13T05:35:22.830Z,7.00
2022-12-13T05:37:54.549Z,9.90
2022-12-13T05:40:26.453Z,7.20
2022-12-13T05:43:01.674Z,7.80
2022-12-13T05:45:33.321Z,6.70
2022-12-13T05:48:52.181Z,7.90
2022-12-13T05:51:21.294Z,8.30
2022-12-13T05:53:53.422Z,6.20
2022-12-13T05:56:23.452Z,5.90
2022-12-13T05:58:54.627Z,4.10
2022-12-13T06:01:24.166Z,3.90
2022-12-13T06:03:53.066Z,4.40
2022-12-13T06:06:23.984Z,6.60
2022-12-13T06:08:53.388Z,6.50
2022-12-13T06:11:32.252Z,6.40
2022-12-13T06:14:02.354Z,7.70
2022-12-13T06:16:31.646Z,5.70
2022-12-13T06:19:04.578Z,7.00
2022-12-13T06:21:43.455Z,6.40
2022-12-13T06:24:21.267Z,6.90
2022-12-13T06:26:52.817Z,9.50
2022-12-13T06:29:25.696Z,8.80
2022-12-13T06:32:06.159Z,9.30
2022-12-13T06:34:36.964Z,12.40
2022-12-13T06:37:09.472Z,10.30
2022-12-13T06:39:40.276Z,8.60
2022-12-13T06:42:21.839Z,8.20
2022-12-13T06:44:56.185Z,8.30
2022-12-13T06:47:31.646Z,5.80
2022-12-13T06:50:05.908Z,8.30
2022-12-13T06:52:35.732Z,6.90
2022-12-13T06:55:06.125Z,7.00
2022-12-13T06:57:35.622Z,6.00
2022-12-13T07:00:06.145Z,6.80
2022-12-13T07:02:38.596Z,7.30
2022-12-13T07:05:08.643Z,6.30
2022-12-13T07:07:39.373Z,7.00
2022-12-13T07:10:22.136Z,7.10
2022-12-13T07:12:52.124Z,7.90
2022-12-13T07:15:25.512Z,8.90
2022-12-13T07:17:56.097Z,8.90
2022-12-13T07:20:25.384Z,8.80
2022-12-13T07:22:59.801Z,8.20
2022-12-13T07:25:30.012Z,6.70
2022-12-13T07:28:08.738Z,7.90
2022-12-13T07:30:41.481Z,9.30
2022-12-13T07:33:13.577Z,12.90
2022-12-13T07:36:00.198Z,10.30
2022-12-13T07:38:31.888Z,9.60
2022-12-13T07:41:01.156Z,15.60
2022-12-13T07:43:30.618Z,9.60
2022-12-13T07:46:06.493Z,10.30
2022-12-13T07:48:36.471Z,11.00
2022-12-13T07:51:10.028Z,14.10
2022-12-13T07:53:40.958Z,14.10
2022-12-13T07:56:12.401Z,12.50
2022-12-13T07:58:46.418Z,12.10
2022-12-13T08:01:19.102Z,14.10
2022-12-13T08:03:49.508Z,10.40
2022-12-13T08:06:20.459Z,10.30
2022-12-13T08:08:51.742Z,10.80
2022-12-13T08:11:22.228Z,9.20
2022-12-13T08:13:54.398Z,11.60
2022-12-13T08:16:27.943Z,8.70
2022-12-13T08:21:55.048Z,12.40
2022-12-13T08:24:28.011Z,7.30
2022-12-13T08:27:04.728Z,6.40
2022-12-13T08:29:36.006Z,8.20
2022-12-13T08:32:11.457Z,8.00
2022-12-13T08:34:42.833Z,9.20
2022-12-13T08:37:13.052Z,6.50
2022-12-13T08:39:42.396Z,6.50
2022-12-13T08:42:20.129Z,7.80
2022-12-13T08:44:52.885Z,6.80
2022-12-13T08:47:50.776Z,10.80
2022-12-13T08:50:20.396Z,12.20
2022-12-13T08:52:52.484Z,6.50
2022-12-13T08:55:31.620Z,6.30
2022-12-13T08:58:08.973Z,7.10
2022-12-13T09:00:39.505Z,6.60
2022-12-13T09:03:10.691Z,7.50
2022-12-13T09:05:43.002Z,7.40
2022-12-13T09:08:24.842Z,7.70
2022-12-13T09:11:10.174Z,9.70
2022-12-13T09:13:43.162Z,7.50
2022-12-13T09:16:24.744Z,9.50
2022-12-13T09:18:56.174Z,7.50
2022-12-13T09:21:31.615Z,7.70
2022-12-13T09:24:02.545Z,8.50
2022-12-13T09:26:38.292Z,8.30
2022-12-13T09:29:11.535Z,8.30
2022-12-13T09:31:42.060Z,9.10
2022-12-13T09:34:13.541Z,7.60
2022-12-13T09:36:44.192Z,7.90
2022-12-13T09:39:13.820Z,8.00
2022-12-13T09:42:01.051Z,7.70
2022-12-13T09:44:44.023Z,8.30
2022-12-13T09:47:46.720Z,9.40
2022-12-13T09:50:27.614Z,8.80
2022-12-13T09:53:00.242Z,7.90
2022-12-13T09:55:47.103Z,9.70
2022-12-13T09:58:26.999Z,9.70
2022-12-13T10:00:59.396Z,11.00
2022-12-13T10:03:28.879Z,15.10
2022-12-13T10:06:00.689Z,10.90
2022-12-13T10:08:40.429Z,9.20
2022-12-13T10:11:14.763Z,7.70
2022-12-13T10:13:49.449Z,7.50
2022-12-13T10:18:55.004Z,6.70
2022-12-13T10:21:40.475Z,7.60
2022-12-13T10:24:49.952Z,8.30
2022-12-13T10:27:35.608Z,9.80
2022-12-13T10:30:13.383Z,8.60
2022-12-13T10:32:52.110Z,8.20
2022-12-13T10:35:34.998Z,7.90
2022-12-13T10:38:32.222Z,8.00
2022-12-13T10:41:02.820Z,9.20
2022-12-13T10:43:32.947Z,9.30
2022-12-13T10:46:07.185Z,8.80
2022-12-13T10:49:02.183Z,10.80
2022-12-13T10:51:40.429Z,7.80
2022-12-13T10:54:17.881Z,8.00
2022-12-13T10:56:50.585Z,6.80
2022-12-13T10:59:27.743Z,9.00
2022-12-13T11:02:00.661Z,9.20
2022-12-13T11:04:36.506Z,8.10
2022-12-13T11:07:34.481Z,10.60
2022-12-13T11:10:26.866Z,8.80
2022-12-13T11:13:05.763Z,10.60
2022-12-13T11:15:40.375Z,9.70
2022-12-13T11:21:00.330Z,8.90
2022-12-13T11:23:35.759Z,8.90
2022-12-13T11:26:24.185Z,8.90
2022-12-13T11:29:42.853Z,10.20
2022-12-13T11:32:42.698Z,7.80
2022-12-13T11:35:42.370Z,8.90
2022-12-13T11:38:19.908Z,7.70
2022-12-13T11:41:32.496Z,6.90
2022-12-13T11:44:17.440Z,7.90
2022-12-13T11:46:56.423Z,8.10
2022-12-13T11:49:44.744Z,8.50
2022-12-13T11:52:24.935Z,9.00
2022-12-13T11:55:15.460Z,8.60
2022-12-13T11:58:05.464Z,8.90
2022-12-13T12:00:36.461Z,7.90
2022-12-13T12:03:47.828Z,6.90
2022-12-13T12:06:27.726Z,23.50
2022-12-13T12:09:09.839Z,10.40
2022-12-13T12:11:52.338Z,9.70
2022-12-13T12:14:41.672Z,14.10
2022-12-13T12:17:16.713Z,24.20
2022-12-13T12:19:51.275Z,19.30
2022-12-13T12:25:36.619Z,9.40
2022-12-13T12:28:31.404Z,9.00
2022-12-13T12:31:16.765Z,11.20
2022-12-13T12:34:27.889Z,10.80
2022-12-13T12:37:20.926Z,10.90
2022-12-13T12:40:08.264Z,8.80
2022-12-13T12:43:15.310Z,8.60
2022-12-13T12:46:20.784Z,9.50
2022-12-13T12:49:01.849Z,9.30
2022-12-13T12:51:49.053Z,8.70
2022-12-13T12:54:42.142Z,8.80
2022-12-13T12:57:19.661Z,8.00
2022-12-13T13:00:15.129Z,8.20
2022-12-13T13:03:18.808Z,6.70
2022-12-13T13:06:01.956Z,6.00
2022-12-13T13:08:51.493Z,7.20
2022-12-13T13:11:43.128Z,5.90
2022-12-13T13:14:38.837Z,6.30
2022-12-13T13:17:16.886Z,6.40
2022-12-13T13:20:21.073Z,6.20
2022-12-13T13:23:10.219Z,6.30
2022-12-13T13:26:07.825Z,6.50
2022-12-13T13:28:31.762Z,6.20
2022-12-13T13:31:07.027Z,6.20
2022-12-13T13:33:47.415Z,6.90
2022-12-13T13:36:42.136Z,5.80
2022-12-13T13:39:19.700Z,6.90
2022-12-13T13:42:03.802Z,6.60
2022-12-13T13:44:35.196Z,5.90
2022-12-13T13:47:34.216Z,7.20
2022-12-13T13:50:11.485Z,7.10
2022-12-13T13:53:13.405Z,8.50
2022-12-13T13:56:14.352Z,7.50
2022-12-13T13:59:12.834Z,7.60
2022-12-13T14:02:27.474Z,8.00
2022-12-13T14:05:31.917Z,6.20
2022-12-13T14:08:45.639Z,7.20
2022-12-13T14:11:29.381Z,6.70
2022-12-13T14:14:50.040Z,6.30
2022-12-13T14:17:22.099Z,7.60
2022-12-13T14:20:38.592Z,6.80
2022-12-13T14:23:26.877Z,7.30
2022-12-13T14:26:13.360Z,7.20
2022-12-13T14:29:14.834Z,9.50
2022-12-13T14:31:47.499Z,8.30
2022-12-13T14:34:28.512Z,8.60
2022-12-13T14:37:01.647Z,9.10
2022-12-13T14:39:32.752Z,6.70
2022-12-13T14:42:26.916Z,7.50
2022-12-13T14:44:56.659Z,12.20
2022-12-13T14:47:28.040Z,10.60
2022-12-13T14:49:57.252Z,8.10
2022-12-13T14:52:30.884Z,8.10
2022-12-13T14:55:04.560Z,10.60
2022-12-13T14:57:36.193Z,10.00
2022-12-13T15:00:29.822Z,12.10
2022-12-13T15:03:02.992Z,15.30
2022-12-13T15:05:50.765Z,10.20
2022-12-13T15:08:20.976Z,10.00
2022-12-13T15:10:57.598Z,9.30
2022-12-13T15:13:51.542Z,10.30
2022-12-13T15:16:30.409Z,8.40
2022-12-13T15:19:31.084Z,12.30
2022-12-13T15:22:15.306Z,11.60
2022-12-13T15:24:59.369Z,11.90
2022-12-13T15:27:37.472Z,11.70
2022-12-13T15:30:07.793Z,13.20
2022-12-13T15:32:37.247Z,12.40
2022-12-13T15:35:17.899Z,9.90
2022-12-13T15:37:47.878Z,11.30
2022-12-13T15:40:19.998Z,11.90
2022-12-13T15:42:52.236Z,10.90
2022-12-13T15:45:34.817Z,9.30
2022-12-13T15:48:06.467Z,15.60
2022-12-13T15:50:45.487Z,11.80
2022-12-13T15:53:26.647Z,10.80
2022-12-13T15:55:58.225Z,12.40
2022-12-13T15:58:28.758Z,12.90
2022-12-13T16:00:59.929Z,12.40
2022-12-13T16:03:30.371Z,9.90
2022-12-13T16:06:02.084Z,9.50
2022-12-13T16:08:36.076Z,8.10
2022-12-13T16:11:08.319Z,10.30
2022-12-13T16:13:47.308Z,8.70
2022-12-13T16:16:33.988Z,9.00
2022-12-13T16:19:17.934Z,9.30
2022-12-13T16:21:47.624Z,14.40
2022-12-13T16:24:16.818Z,17.30
2022-12-13T16:26:48.457Z,14.00
2022-12-13T16:29:22.174Z,12.70
2022-12-13T16:31:51.656Z,11.40
2022-12-13T16:34:21.098Z,12.70
2022-12-13T16:36:56.127Z,9.80
2022-12-13T16:39:27.365Z,9.60
2022-12-13T16:41:57.177Z,12.60
2022-12-13T16:44:34.374Z,11.00
2022-12-13T16:47:14.684Z,8.20
2022-12-13T16:49:51.561Z,8.90
2022-12-13T16:52:22.534Z,8.00
2022-12-13T16:54:55.076Z,7.50
2022-12-13T16:57:26.423Z,7.80
2022-12-13T16:59:59.022Z,9.30
2022-12-13T17:02:33.207Z,11.60
2022-12-13T17:05:14.207Z,10.20
2022-12-13T17:07:46.336Z,8.40
2022-12-13T17:10:20.751Z,7.60
2022-12-13T17:12:51.745Z,8.30
2022-12-13T17:15:24.795Z,6.70
2022-12-13T17:17:57.704Z,7.50
2022-12-13T17:20:31.187Z,6.70
2022-12-13T17:23:04.042Z,7.60
2022-12-13T17:28:10.869Z,8.30
2022-12-13T17:30:45.348Z,6.80
2022-12-13T17:33:19.366Z,7.60
2022-12-13T17:35:52.967Z,10.80
2022-12-13T17:38:25.397Z,9.80
2022-12-13T17:40:58.386Z,8.10
2022-12-13T17:43:35.595Z,7.70
2022-12-13T17:46:11.096Z,8.40
2022-12-13T17:48:43.385Z,8.20
2022-12-13T17:51:15.956Z,9.40
2022-12-13T17:53:46.276Z,12.00
2022-12-13T17:56:21.215Z,7.70
2022-12-13T17:58:50.828Z,13.30
2022-12-13T18:01:25.819Z,10.30
2022-12-13T18:03:57.758Z,11.40
2022-12-13T18:06:28.197Z,7.20
2022-12-13T18:09:00.192Z,9.70
2022-12-13T18:11:35.048Z,16.70
2022-12-13T18:14:08.651Z,15.90
2022-12-13T18:16:40.949Z,13.30
2022-12-13T18:19:13.906Z,11.40
2022-12-13T18:21:45.207Z,9.60
2022-12-13T18:24:16.366Z,10.90
2022-12-13T18:26:47.128Z,8.00
2022-12-13T18:29:19.921Z,7.80
2022-12-13T18:31:52.158Z,10.50
2022-12-13T18:34:25.562Z,9.50
2022-12-13T18:36:56.659Z,18.20
2022-12-13T18:39:30.204Z,11.80
2022-12-13T18:42:01.613Z,10.80
2022-12-13T18:44:35.530Z,11.50
2022-12-13T18:47:06.806Z,10.20
2022-12-13T18:49:37.864Z,19.00
2022-12-13T18:52:09.874Z,9.90
2022-12-13T18:54:40.914Z,8.90
2022-12-13T18:57:17.791Z,8.20
2022-12-13T18:59:54.880Z,8.60
2022-12-13T19:02:34.605Z,12.40
2022-12-13T19:05:10.831Z,8.40
2022-12-13T19:07:48.368Z,9.90
2022-12-13T19:10:22.669Z,10.70
2022-12-13T19:12:57.504Z,9.90
2022-12-13T19:15:35.168Z,9.90
2022-12-13T19:18:11.518Z,15.60
2022-12-13T19:20:52.313Z,18.90
2022-12-13T19:23:25.047Z,25.80
2022-12-13T19:25:59.862Z,27.30
2022-12-13T19:28:34.779Z,27.70
2022-12-13T19:31:10.799Z,20.60
2022-12-13T19:33:45.442Z,16.00
2022-12-13T19:36:19.647Z,15.20
2022-12-13T19:38:57.090Z,14.10
2022-12-13T19:41:36.377Z,10.60
2022-12-13T19:44:08.366Z,11.00
2022-12-13T19:51:20.518Z,10.00
2022-12-13T19:53:54.880Z,12.60
2022-12-13T19:56:26.743Z,10.20
2022-12-13T19:58:59.214Z,11.80
2022-12-13T20:01:32.334Z,11.50
2022-12-13T20:04:08.828Z,9.50
2022-12-13T20:06:43.433Z,10.40
2022-12-13T20:09:15.448Z,11.60
2022-12-13T20:11:51.208Z,12.80
2022-12-13T20:14:22.959Z,13.50
2022-12-13T20:16:58.249Z,11.50
2022-12-13T20:19:32.790Z,14.80
2022-12-13T20:22:09.955Z,14.20
2022-12-13T20:24:42.022Z,11.80
2022-12-13T20:27:15.361Z,11.30
2022-12-13T20:29:51.831Z,11.50
2022-12-13T20:32:28.603Z,13.80
2022-12-13T20:35:01.300Z,19.80
2022-12-13T20:37:33.487Z,17.60
2022-12-13T20:40:07.255Z,12.10
2022-12-13T20:42:42.413Z,10.80
2022-12-13T20:45:15.125Z,14.00
2022-12-13T20:47:46.672Z,23.90
2022-12-13T20:50:17.725Z,13.60
2022-12-13T20:52:50.881Z,12.60
2022-12-13T20:55:23.911Z,16.40
2022-12-13T20:57:59.096Z,14.50
2022-12-13T21:00:33.306Z,14.90
2022-12-13T21:03:07.298Z,13.40
2022-12-13T21:05:37.945Z,13.00
2022-12-13T21:08:29.094Z,9.20
2022-12-13T21:11:20.823Z,10.00
2022-12-13T21:14:06.882Z,9.70
2022-12-13T21:16:45.485Z,11.10
2022-12-13T21:19:21.336Z,16.30
2022-12-13T21:21:51.369Z,11.10
2022-12-13T21:24:25.449Z,11.40
2022-12-13T21:26:57.331Z,9.50
2022-12-13T21:29:28.899Z,10.20
2022-12-13T21:32:00.139Z,10.30
2022-12-13T21:34:30.535Z,9.50
2022-12-13T21:37:02.356Z,9.40
2022-12-13T21:39:31.803Z,9.40
2022-12-13T21:42:02.934Z,10.20
2022-12-13T21:44:32.209Z,10.60
2022-12-13T21:47:27.405Z,8.20
2022-12-13T21:49:56.875Z,13.00
2022-12-13T21:52:26.184Z,11.10
2022-12-13T21:55:15.177Z,9.80
2022-12-13T21:58:07.915Z,9.90
2022-12-13T22:00:39.177Z,11.10
2022-12-13T22:03:10.372Z,10.30
2022-12-13T22:05:40.465Z,11.10
2022-12-13T22:08:10.362Z,12.90
2022-12-13T22:10:59.343Z,10.80
2022-12-13T22:13:30.120Z,9.30
2022-12-13T22:15:59.201Z,9.00
2022-12-13T22:18:29.281Z,9.50
2022-12-13T22:21:00.740Z,9.80
2022-12-13T22:23:30.892Z,11.50
2022-12-13T22:25:59.815Z,10.50
2022-12-13T22:28:30.614Z,11.40
2022-12-13T22:30:59.698Z,13.20
2022-12-13T22:33:30.778Z,11.60
2022-12-13T22:36:02.150Z,10.20
2022-12-13T22:38:31.168Z,10.70
2022-12-13T22:41:02.193Z,10.30
2022-12-13T22:43:36.130Z,10.50
2022-12-13T22:46:08.761Z,12.10
2022-12-13T22:48:38.975Z,13.40
2022-12-13T22:51:12.132Z,12.10
2022-12-13T22:53:44.211Z,13.50
2022-12-13T22:56:18.912Z,13.40
2022-12-13T22:58:48.951Z,15.40
2022-12-13T23:01:22.867Z,14.30
2022-12-13T23:03:52.262Z,13.30
2022-12-13T23:06:23.990Z,12.80
2022-12-13T23:08:56.340Z,15.10
2022-12-13T23:11:45.710Z,15.60
2022-12-13T23:14:19.334Z,13.70
2022-12-13T23:16:48.632Z,15.60
2022-12-13T23:22:09.496Z,13.10
2022-12-13T23:24:38.601Z,14.90
2022-12-13T23:27:10.838Z,13.60
2022-12-13T23:29:41.715Z,12.80
2022-12-13T23:32:11.593Z,14.50
2022-12-13T23:34:40.609Z,12.80
2022-12-13T23:37:10.970Z,14.30
2022-12-13T23:39:40.134Z,13.70
2022-12-13T23:42:10.727Z,12.50
2022-12-13T23:44:39.737Z,15.20
2022-12-13T23:47:09.631Z,13.10
2022-12-13T23:49:38.797Z,14.50
2022-12-13T23:52:07.638Z,12.80
2022-12-13T23:54:37.009Z,13.20
2022-12-13T23:57:06.273Z,14.90
2022-12-13T23:59:35.224Z,16.90
